Statengracht — PHAQ — position and weather

sailwx.info

Track history (hours):
 
Tides and Currents Weather Stations Pressure Air Temp Water Temp Dewpoint Dewpoint Depression Visibility Wind Speed Wind Dir Waves Ship Positions

Statengracht

Last reported at 2018-Feb-21 18:56 UTC. Time now 2018-Feb-21 19:26 UTC.
Position N 55°28' E 008°26'.

Length 173 m; beam 25 m.

Type: Cargo ship. MMSI: 244584000.

Date/timePositionNaut miles runAvg speedWind from/ knotsBaromVisibWave heightAir tempDewpointWater temp
2018-Feb-21 18:56N 55°28' E 008°26'0 0.0
2018-Feb-21 18:23N 55°28' E 008°26'0 0.0
2018-Feb-21 17:56N 55°28' E 008°26'0 0.0
2018-Feb-21 17:26N 55°28' E 008°26'0 0.0
2018-Feb-21 16:53N 55°28' E 008°26'0 0.0
2018-Feb-21 16:23N 55°28' E 008°26'0 0.0
2018-Feb-21 15:56N 55°28' E 008°26'0 0.0
2018-Feb-21 15:26N 55°28' E 008°26'0 0.0
2018-Feb-21 14:59N 55°28' E 008°26'0 0.0
2018-Feb-21 14:29N 55°28' E 008°26'0 0.0
2018-Feb-21 13:59N 55°28' E 008°26'0 0.0
2018-Feb-21 13:29N 55°28' E 008°26'0 0.0
2018-Feb-21 12:59N 55°28' E 008°26'0 0.0
2018-Feb-21 12:29N 55°28' E 008°26'0 0.0
2018-Feb-21 11:58N 55°28' E 008°26'0 0.0
2018-Feb-21 11:10N 55°28' E 008°26'0 0.0
2018-Feb-21 10:58N 55°28' E 008°26'0 0.0
2018-Feb-21 10:01N 55°28' E 008°26'0 0.0
2018-Feb-21 09:46N 55°28' E 008°26'0 0.0
2018-Feb-21 08:46N 55°28' E 008°26'0 0.0
2018-Feb-21 08:28N 55°28' E 008°26'0 0.0
2018-Feb-21 07:55N 55°28' E 008°26'0 0.0
2018-Feb-21 07:16N 55°28' E 008°26'0 0.0
2018-Feb-21 06:58N 55°28' E 008°26'0 0.0
2018-Feb-21 06:28N 55°28' E 008°26'0 0.0
2018-Feb-21 05:46N 55°28' E 008°26'0 0.3
2018-Feb-21 05:30N 55°28' E 008°26'1 1.5
2018-Feb-21 05:00N 55°29' E 008°25'3 6.2
2018-Feb-21 04:30N 55°28' E 008°19'4 8.2
2018-Feb-21 04:00N 55°25' E 008°13'4 8.4
2018-Feb-21 03:30N 55°23' E 008°07'612.5
2018-Feb-21 03:00N 55°23' E 007°56'612.8
2018-Feb-21 02:30N 55°25' E 007°45'714.3
2018-Feb-21 02:00N 55°29' E 007°35'816.3
2018-Feb-21 01:30N 55°33' E 007°23'815.4
2018-Feb-21 01:00N 55°41' E 007°21'816.7
2018-Feb-21 00:30N 55°49' E 007°25'15216.1
2018-Feb-20 15:02N 57°50' E 010°15'118.5
2018-Feb-20 14:58N 57°50' E 010°17'918.6
2018-Feb-20 14:30N 57°50' E 010°34'918.3
2018-Feb-20 14:00N 57°47' E 010°50'918.3
2018-Feb-20 13:30N 57°43' E 011°06'918.3
2018-Feb-20 13:00N 57°39' E 011°21'917.8
2018-Feb-20 12:30N 57°35' E 011°36'3 4.9
2018-Feb-20 12:00N 57°35' E 011°40'0 0.0
2018-Feb-20 11:30N 57°35' E 011°40'0 0.0
2018-Feb-20 11:00N 57°35' E 011°40'0 0.1
2018-Feb-20 10:30N 57°35' E 011°40'0 0.0
2018-Feb-20 10:00N 57°35' E 011°40'0 0.0
2018-Feb-20 09:30N 57°35' E 011°40'0 0.0
2018-Feb-20 09:00N 57°35' E 011°40'0 0.1
2018-Feb-20 08:30N 57°35' E 011°40'0 0.0
2018-Feb-20 08:00N 57°35' E 011°40'0 0.1
2018-Feb-20 07:30N 57°35' E 011°40'0 0.1
2018-Feb-20 07:00N 57°35' E 011°40'0 0.1
2018-Feb-20 06:30N 57°35' E 011°40'0 0.0
2018-Feb-20 06:00N 57°35' E 011°40'0 0.0
2018-Feb-20 05:30N 57°35' E 011°40'0 0.0
2018-Feb-20 05:00N 57°35' E 011°40'0 0.0
2018-Feb-20 04:30N 57°35' E 011°40'0 0.0
2018-Feb-20 04:00N 57°35' E 011°40'0 0.0
2018-Feb-20 03:30N 57°35' E 011°40'0 0.0
2018-Feb-20 03:00N 57°35' E 011°40'0 0.0
2018-Feb-20 02:30N 57°35' E 011°40'0 0.0
2018-Feb-20 02:00N 57°35' E 011°40'0 0.0
2018-Feb-20 01:30N 57°35' E 011°40'0 0.1
2018-Feb-20 01:00N 57°35' E 011°40'0 0.1
2018-Feb-20 00:30N 57°35' E 011°40'0 0.0
2018-Feb-20 00:00N 57°35' E 011°40'0 0.0
2018-Feb-19 23:29N 57°35' E 011°40'0 0.0
2018-Feb-19 23:00N 57°35' E 011°40'0 0.0
2018-Feb-19 22:29N 57°35' E 011°40'0 0.0
2018-Feb-19 21:59N 57°35' E 011°40'0 0.1
2018-Feb-19 21:29N 57°35' E 011°40'1 1.2
2018-Feb-19 21:00N 57°35' E 011°39'5 9.2
2018-Feb-19 20:31N 57°30' E 011°37'917.7
2018-Feb-19 20:00N 57°21' E 011°36'917.6
2018-Feb-19 19:30N 57°13' E 011°37'11515.7
2018-Feb-19 12:08N 55°19' E 011°03'217.7
2018-Feb-19 12:00N 55°17' E 011°04'816.4
2018-Feb-19 11:30N 55°08' E 011°03'917.8
2018-Feb-19 11:00N 54°59' E 011°02'816.7
2018-Feb-19 10:31N 54°53' E 010°53'816.1
2018-Feb-19 10:00N 54°45' E 010°52'713.2
2018-Feb-19 09:31N 54°40' E 010°60'917.0
2018-Feb-19 09:00N 54°35' E 011°13'918.0
2018-Feb-19 08:30N 54°31' E 011°27'917.5
2018-Feb-19 08:00N 54°28' E 011°40'917.1
2018-Feb-19 07:30N 54°26' E 011°55'6616.0
2018-Feb-19 03:24N 54°58' E 013°35'2116.9
2018-Feb-19 02:09N 55°07' E 014°08'517.0
2018-Feb-19 01:53N 55°11' E 014°13'617.0
2018-Feb-19 01:31N 55°15' E 014°20'917.1
2018-Feb-19 01:00N 55°22' E 014°29'1016.8
2018-Feb-19 00:23N 55°29' E 014°42'817.1
2018-Feb-18 23:57N 55°34' E 014°53'1217.1
2018-Feb-18 23:14N 55°39' E 015°13'417.1
2018-Feb-18 23:00N 55°41' E 015°19'817.2
2018-Feb-18 22:30N 55°45' E 015°32'917.1
2018-Feb-18 22:00N 55°49' E 015°46'917.1
2018-Feb-18 21:30N 55°53' E 015°59'917.2
2018-Feb-18 21:00N 55°57' E 016°12'917.2
2018-Feb-18 20:31N 56°02' E 016°26'917.4
2018-Feb-18 20:00N 56°07' E 016°38'817.0
2018-Feb-18 19:31N 56°13' E 016°49'917.6
2018-Feb-18 19:01N 56°21' E 016°54'917.7
2018-Feb-18 18:29N 56°30' E 017°00'21416.7
2018-Feb-18 05:41N 59°46' E 019°42'317.6
2018-Feb-18 05:30N 59°49' E 019°38'917.6
2018-Feb-18 05:00N 59°55' E 019°26'917.6
2018-Feb-18 04:31N 60°02' E 019°15'917.8
2018-Feb-18 04:00N 60°09' E 019°04'917.2
2018-Feb-18 03:31N 60°17' E 019°01'814.6
2018-Feb-18 02:59N 60°25' E 018°59'  
2018-Feb-14 14:53N 61°16' E 020°57'2 4.9
2018-Feb-14 14:30N 61°14' E 020°59'4 8.8
2018-Feb-14 14:00N 61°10' E 021°03'3 5.7
2018-Feb-14 13:30N 61°08' E 021°07'2 4.0
2018-Feb-14 13:00N 61°07' E 021°11'4 8.5
2018-Feb-14 12:30N 61°06' E 021°19'4 6.8
2018-Feb-14 11:58N 61°08' E 021°26'0 0.0
2018-Feb-14 11:28N 61°08' E 021°26'0 0.0
2018-Feb-14 10:58N 61°08' E 021°26'0 0.0
2018-Feb-14 10:28N 61°08' E 021°26'0 0.0
2018-Feb-14 09:58N 61°08' E 021°26'0 0.0
2018-Feb-14 09:25N 61°08' E 021°26'0 0.0
2018-Feb-14 08:58N 61°08' E 021°26'0 0.0
2018-Feb-14 08:25N 61°08' E 021°26'0 0.0
2018-Feb-14 07:58N 61°08' E 021°26'0 0.0
2018-Feb-14 07:28N 61°08' E 021°26'0 0.0
2018-Feb-14 06:55N 61°08' E 021°26'0 0.0
2018-Feb-14 06:28N 61°08' E 021°26'0 0.0
2018-Feb-14 05:58N 61°08' E 021°26'0 0.0
2018-Feb-14 05:28N 61°08' E 021°26'0 0.0
2018-Feb-14 04:58N 61°08' E 021°26'0 0.0
2018-Feb-14 04:28N 61°08' E 021°26'0 0.0
2018-Feb-14 03:58N 61°08' E 021°26'0 0.0
2018-Feb-14 03:28N 61°08' E 021°26'0 0.0
2018-Feb-14 02:58N 61°08' E 021°26'0 0.0
2018-Feb-14 02:28N 61°08' E 021°26'0 0.0
2018-Feb-14 01:58N 61°08' E 021°26'0 0.0
2018-Feb-14 01:28N 61°08' E 021°26'0 0.0
2018-Feb-14 00:58N 61°08' E 021°26'0 0.0
2018-Feb-14 00:28N 61°08' E 021°26'0 0.0
2018-Feb-13 23:58N 61°08' E 021°26'0 0.0
2018-Feb-13 23:28N 61°08' E 021°26'0 0.0
2018-Feb-13 22:58N 61°08' E 021°26'0 0.0
2018-Feb-13 22:28N 61°08' E 021°26'0 0.0
2018-Feb-13 21:58N 61°08' E 021°26'0 0.0
2018-Feb-13 21:27N 61°08' E 021°26'0 0.0
2018-Feb-13 20:59N 61°08' E 021°26'0 0.0
2018-Feb-13 20:28N 61°08' E 021°26'0 0.0
2018-Feb-13 19:59N 61°08' E 021°26'0 0.0
2018-Feb-13 19:29N 61°08' E 021°26'0 0.0
2018-Feb-13 19:00N 61°08' E 021°26'0 0.0
2018-Feb-13 18:28N 61°08' E 021°26'0 0.0
2018-Feb-13 17:58N 61°08' E 021°26'0 0.0
2018-Feb-13 17:28N 61°08' E 021°26'0 0.0
2018-Feb-13 16:59N 61°08' E 021°26'0 0.0
2018-Feb-13 16:28N 61°08' E 021°26'0 0.0
2018-Feb-13 15:58N 61°08' E 021°26'0 0.0
2018-Feb-13 15:28N 61°08' E 021°26'0 0.0
2018-Feb-13 14:58N 61°08' E 021°26'0 0.0
2018-Feb-13 14:28N 61°08' E 021°26'0 0.0
2018-Feb-13 13:59N 61°08' E 021°26'0 0.0
2018-Feb-13 13:28N 61°08' E 021°26'0 0.0
2018-Feb-13 12:58N 61°08' E 021°26'0 0.0
2018-Feb-13 12:30N 61°08' E 021°26'0 0.0
2018-Feb-13 11:59N 61°08' E 021°26'0 0.0
2018-Feb-13 11:30N 61°08' E 021°26'0 0.0
2018-Feb-13 10:58N 61°08' E 021°26'0 0.0
2018-Feb-13 10:30N 61°08' E 021°26'0 0.0
2018-Feb-13 09:59N 61°08' E 021°26'0 0.0
2018-Feb-13 09:29N 61°08' E 021°26'0 0.0
2018-Feb-13 09:00N 61°08' E 021°26'0 0.0
2018-Feb-13 08:30N 61°08' E 021°26'0 0.0
2018-Feb-13 07:57N 61°08' E 021°26'0 0.0
2018-Feb-13 07:28N 61°08' E 021°26'0 0.0
2018-Feb-13 06:59N 61°08' E 021°26'0 0.0
2018-Feb-13 06:28N 61°08' E 021°26'0 0.0
2018-Feb-13 05:59N 61°08' E 021°26'0 0.0
2018-Feb-13 05:28N 61°08' E 021°26'0 0.0
2018-Feb-13 04:58N 61°08' E 021°26'0 0.0
2018-Feb-13 04:29N 61°08' E 021°26'0 0.0
2018-Feb-13 04:00N 61°08' E 021°26'0 0.0
2018-Feb-13 03:30N 61°08' E 021°26'0 0.0
2018-Feb-13 02:59N 61°08' E 021°26'0 0.0
2018-Feb-13 02:30N 61°08' E 021°26'0 0.0
2018-Feb-13 02:00N 61°08' E 021°26'0 0.0
2018-Feb-13 01:25N 61°08' E 021°26'0 0.0
2018-Feb-13 01:01N 61°08' E 021°26'0 0.0
2018-Feb-13 00:27N 61°08' E 021°26'0 0.0
2018-Feb-12 23:58N 61°08' E 021°26'0 0.0
2018-Feb-12 23:28N 61°08' E 021°26'0 0.0
2018-Feb-12 22:59N 61°08' E 021°26'0 0.0
2018-Feb-12 22:29N 61°08' E 021°26'0 0.0
2018-Feb-12 22:01N 61°08' E 021°26'0 0.0
2018-Feb-12 21:27N 61°08' E 021°26'0 0.0
2018-Feb-12 20:48N 61°08' E 021°26'0 0.0
2018-Feb-12 20:30N 61°08' E 021°26'0 0.0
2018-Feb-12 20:00N 61°08' E 021°26'0 0.0
2018-Feb-12 19:30N 61°08' E 021°26'0 0.0
2018-Feb-12 19:00N 61°08' E 021°26'0 0.0
2018-Feb-12 18:30N 61°08' E 021°26'0 0.0
2018-Feb-12 18:00N 61°08' E 021°26'0 0.0
2018-Feb-12 17:30N 61°08' E 021°26'0 0.0
2018-Feb-12 17:00N 61°08' E 021°26'0 0.0
2018-Feb-12 16:30N 61°08' E 021°26'0 0.0
2018-Feb-12 16:00N 61°08' E 021°26'0 0.0
2018-Feb-12 15:30N 61°08' E 021°26'0 0.0
2018-Feb-12 15:00N 61°08' E 021°26'0 0.0
2018-Feb-12 14:30N 61°08' E 021°26'0 0.0
2018-Feb-12 14:00N 61°08' E 021°26'0 0.0
2018-Feb-12 13:30N 61°08' E 021°26'0 0.0
2018-Feb-12 13:00N 61°08' E 021°26'0 0.0
2018-Feb-12 12:30N 61°08' E 021°26'0 0.0
2018-Feb-12 12:00N 61°08' E 021°26'0 0.0
2018-Feb-12 11:30N 61°08' E 021°26'0 0.0
2018-Feb-12 11:00N 61°08' E 021°26'0 0.0
2018-Feb-12 10:30N 61°08' E 021°26'0 0.0
2018-Feb-12 10:00N 61°08' E 021°26'0 0.0
2018-Feb-12 09:30N 61°08' E 021°26'0 0.0
2018-Feb-12 09:00N 61°08' E 021°26'0 0.0
2018-Feb-12 08:30N 61°08' E 021°26'0 0.0
2018-Feb-12 08:00N 61°08' E 021°26'0 0.0
2018-Feb-12 07:30N 61°08' E 021°26'0 0.0
2018-Feb-12 07:00N 61°08' E 021°26'0 0.0
2018-Feb-12 06:30N 61°08' E 021°26'0 0.0
2018-Feb-12 06:00N 61°08' E 021°26'0 0.0
2018-Feb-12 05:30N 61°08' E 021°26'0 0.0
2018-Feb-12 05:00N 61°08' E 021°26'0 0.0
2018-Feb-12 04:30N 61°08' E 021°26'0 0.0
2018-Feb-12 04:00N 61°08' E 021°26'0 0.0
2018-Feb-12 03:30N 61°08' E 021°26'0 0.0
2018-Feb-12 03:00N 61°08' E 021°26'0 0.0
2018-Feb-12 02:29N 61°08' E 021°26'0 0.0
2018-Feb-12 01:59N 61°08' E 021°26'0 0.0
2018-Feb-12 01:29N 61°08' E 021°26'0 0.0
2018-Feb-12 00:59N 61°08' E 021°26'0 0.0
2018-Feb-12 00:29N 61°08' E 021°26'0 0.0
2018-Feb-11 23:59N 61°08' E 021°26'0 0.0
2018-Feb-11 23:29N 61°08' E 021°26'0 0.0
2018-Feb-11 22:59N 61°08' E 021°26'0 0.0
2018-Feb-11 22:29N 61°08' E 021°26'0 0.0
2018-Feb-11 21:59N 61°08' E 021°26'0 0.0
2018-Feb-11 21:29N 61°08' E 021°26'0 0.0
2018-Feb-11 20:59N 61°08' E 021°26'0 0.0
2018-Feb-11 20:29N 61°08' E 021°26'0 0.0
2018-Feb-11 19:59N 61°08' E 021°26'0 0.0
2018-Feb-11 19:29N 61°08' E 021°26'0 0.0
2018-Feb-11 18:59N 61°08' E 021°26'  
Track history (hours):
 
Tides and Currents Weather Stations Pressure Air Temp Water Temp Dewpoint Dewpoint Depression Visibility Wind Speed Wind Dir Waves Ship Positions

Statengracht

Last reported at 2018-Feb-21 18:56 UTC. Time now 2018-Feb-21 19:26 UTC.
Position N 55°28' E 008°26'.

Length 173 m; beam 25 m.

Type: Cargo ship. MMSI: 244584000.

Date/timePositionNaut miles runAvg speedWind from/ knotsBaromVisibWave heightAir tempDewpointWater temp
2018-Feb-21 18:56N 55°28' E 008°26'0 0.0
2018-Feb-21 18:23N 55°28' E 008°26'0 0.0
2018-Feb-21 17:56N 55°28' E 008°26'0 0.0
2018-Feb-21 17:26N 55°28' E 008°26'0 0.0
2018-Feb-21 16:53N 55°28' E 008°26'0 0.0
2018-Feb-21 16:23N 55°28' E 008°26'0 0.0
2018-Feb-21 15:56N 55°28' E 008°26'0 0.0
2018-Feb-21 15:26N 55°28' E 008°26'0 0.0
2018-Feb-21 14:59N 55°28' E 008°26'0 0.0
2018-Feb-21 14:29N 55°28' E 008°26'0 0.0
2018-Feb-21 13:59N 55°28' E 008°26'0 0.0
2018-Feb-21 13:29N 55°28' E 008°26'0 0.0
2018-Feb-21 12:59N 55°28' E 008°26'0 0.0
2018-Feb-21 12:29N 55°28' E 008°26'0 0.0
2018-Feb-21 11:58N 55°28' E 008°26'0 0.0
2018-Feb-21 11:10N 55°28' E 008°26'0 0.0
2018-Feb-21 10:58N 55°28' E 008°26'0 0.0
2018-Feb-21 10:01N 55°28' E 008°26'0 0.0
2018-Feb-21 09:46N 55°28' E 008°26'0 0.0
2018-Feb-21 08:46N 55°28' E 008°26'0 0.0
2018-Feb-21 08:28N 55°28' E 008°26'0 0.0
2018-Feb-21 07:55N 55°28' E 008°26'0 0.0
2018-Feb-21 07:16N 55°28' E 008°26'0 0.0
2018-Feb-21 06:58N 55°28' E 008°26'0 0.0
2018-Feb-21 06:28N 55°28' E 008°26'0 0.0
2018-Feb-21 05:46N 55°28' E 008°26'0 0.3
2018-Feb-21 05:30N 55°28' E 008°26'1 1.5
2018-Feb-21 05:00N 55°29' E 008°25'3 6.2
2018-Feb-21 04:30N 55°28' E 008°19'4 8.2
2018-Feb-21 04:00N 55°25' E 008°13'4 8.4
2018-Feb-21 03:30N 55°23' E 008°07'612.5
2018-Feb-21 03:00N 55°23' E 007°56'612.8
2018-Feb-21 02:30N 55°25' E 007°45'714.3
2018-Feb-21 02:00N 55°29' E 007°35'816.3
2018-Feb-21 01:30N 55°33' E 007°23'815.4
2018-Feb-21 01:00N 55°41' E 007°21'816.7
2018-Feb-21 00:30N 55°49' E 007°25'15216.1
2018-Feb-20 15:02N 57°50' E 010°15'118.5
2018-Feb-20 14:58N 57°50' E 010°17'918.6
2018-Feb-20 14:30N 57°50' E 010°34'918.3
2018-Feb-20 14:00N 57°47' E 010°50'918.3
2018-Feb-20 13:30N 57°43' E 011°06'918.3
2018-Feb-20 13:00N 57°39' E 011°21'917.8
2018-Feb-20 12:30N 57°35' E 011°36'3 4.9
2018-Feb-20 12:00N 57°35' E 011°40'0 0.0
2018-Feb-20 11:30N 57°35' E 011°40'0 0.0
2018-Feb-20 11:00N 57°35' E 011°40'0 0.1
2018-Feb-20 10:30N 57°35' E 011°40'0 0.0
2018-Feb-20 10:00N 57°35' E 011°40'0 0.0
2018-Feb-20 09:30N 57°35' E 011°40'0 0.0
2018-Feb-20 09:00N 57°35' E 011°40'0 0.1
2018-Feb-20 08:30N 57°35' E 011°40'0 0.0
2018-Feb-20 08:00N 57°35' E 011°40'0 0.1
2018-Feb-20 07:30N 57°35' E 011°40'0 0.1
2018-Feb-20 07:00N 57°35' E 011°40'0 0.1
2018-Feb-20 06:30N 57°35' E 011°40'0 0.0
2018-Feb-20 06:00N 57°35' E 011°40'0 0.0
2018-Feb-20 05:30N 57°35' E 011°40'0 0.0
2018-Feb-20 05:00N 57°35' E 011°40'0 0.0
2018-Feb-20 04:30N 57°35' E 011°40'0 0.0
2018-Feb-20 04:00N 57°35' E 011°40'0 0.0
2018-Feb-20 03:30N 57°35' E 011°40'0 0.0
2018-Feb-20 03:00N 57°35' E 011°40'0 0.0
2018-Feb-20 02:30N 57°35' E 011°40'0 0.0
2018-Feb-20 02:00N 57°35' E 011°40'0 0.0
2018-Feb-20 01:30N 57°35' E 011°40'0 0.1
2018-Feb-20 01:00N 57°35' E 011°40'0 0.1
2018-Feb-20 00:30N 57°35' E 011°40'0 0.0
2018-Feb-20 00:00N 57°35' E 011°40'0 0.0
2018-Feb-19 23:29N 57°35' E 011°40'0 0.0
2018-Feb-19 23:00N 57°35' E 011°40'0 0.0
2018-Feb-19 22:29N 57°35' E 011°40'0 0.0
2018-Feb-19 21:59N 57°35' E 011°40'0 0.1
2018-Feb-19 21:29N 57°35' E 011°40'1 1.2
2018-Feb-19 21:00N 57°35' E 011°39'5 9.2
2018-Feb-19 20:31N 57°30' E 011°37'917.7
2018-Feb-19 20:00N 57°21' E 011°36'917.6
2018-Feb-19 19:30N 57°13' E 011°37'11515.7
2018-Feb-19 12:08N 55°19' E 011°03'217.7
2018-Feb-19 12:00N 55°17' E 011°04'816.4
2018-Feb-19 11:30N 55°08' E 011°03'917.8
2018-Feb-19 11:00N 54°59' E 011°02'816.7
2018-Feb-19 10:31N 54°53' E 010°53'816.1
2018-Feb-19 10:00N 54°45' E 010°52'713.2
2018-Feb-19 09:31N 54°40' E 010°60'917.0
2018-Feb-19 09:00N 54°35' E 011°13'918.0
2018-Feb-19 08:30N 54°31' E 011°27'917.5
2018-Feb-19 08:00N 54°28' E 011°40'917.1
2018-Feb-19 07:30N 54°26' E 011°55'6616.0
2018-Feb-19 03:24N 54°58' E 013°35'2116.9
2018-Feb-19 02:09N 55°07' E 014°08'517.0
2018-Feb-19 01:53N 55°11' E 014°13'617.0
2018-Feb-19 01:31N 55°15' E 014°20'917.1
2018-Feb-19 01:00N 55°22' E 014°29'1016.8
2018-Feb-19 00:23N 55°29' E 014°42'817.1
2018-Feb-18 23:57N 55°34' E 014°53'1217.1
2018-Feb-18 23:14N 55°39' E 015°13'417.1
2018-Feb-18 23:00N 55°41' E 015°19'817.2
2018-Feb-18 22:30N 55°45' E 015°32'917.1
2018-Feb-18 22:00N 55°49' E 015°46'917.1
2018-Feb-18 21:30N 55°53' E 015°59'917.2
2018-Feb-18 21:00N 55°57' E 016°12'917.2
2018-Feb-18 20:31N 56°02' E 016°26'917.4
2018-Feb-18 20:00N 56°07' E 016°38'817.0
2018-Feb-18 19:31N 56°13' E 016°49'917.6
2018-Feb-18 19:01N 56°21' E 016°54'917.7
2018-Feb-18 18:29N 56°30' E 017°00'21416.7
2018-Feb-18 05:41N 59°46' E 019°42'317.6
2018-Feb-18 05:30N 59°49' E 019°38'917.6
2018-Feb-18 05:00N 59°55' E 019°26'917.6
2018-Feb-18 04:31N 60°02' E 019°15'917.8
2018-Feb-18 04:00N 60°09' E 019°04'917.2
2018-Feb-18 03:31N 60°17' E 019°01'814.6
2018-Feb-18 02:59N 60°25' E 018°59'  
2018-Feb-14 14:53N 61°16' E 020°57'2 4.9
2018-Feb-14 14:30N 61°14' E 020°59'4 8.8
2018-Feb-14 14:00N 61°10' E 021°03'3 5.7
2018-Feb-14 13:30N 61°08' E 021°07'2 4.0
2018-Feb-14 13:00N 61°07' E 021°11'4 8.5
2018-Feb-14 12:30N 61°06' E 021°19'4 6.8
2018-Feb-14 11:58N 61°08' E 021°26'0 0.0
2018-Feb-14 11:28N 61°08' E 021°26'0 0.0
2018-Feb-14 10:58N 61°08' E 021°26'0 0.0
2018-Feb-14 10:28N 61°08' E 021°26'0 0.0
2018-Feb-14 09:58N 61°08' E 021°26'0 0.0
2018-Feb-14 09:25N 61°08' E 021°26'0 0.0
2018-Feb-14 08:58N 61°08' E 021°26'0 0.0
2018-Feb-14 08:25N 61°08' E 021°26'0 0.0
2018-Feb-14 07:58N 61°08' E 021°26'0 0.0
2018-Feb-14 07:28N 61°08' E 021°26'0 0.0
2018-Feb-14 06:55N 61°08' E 021°26'0 0.0
2018-Feb-14 06:28N 61°08' E 021°26'0 0.0
2018-Feb-14 05:58N 61°08' E 021°26'0 0.0
2018-Feb-14 05:28N 61°08' E 021°26'0 0.0
2018-Feb-14 04:58N 61°08' E 021°26'0 0.0
2018-Feb-14 04:28N 61°08' E 021°26'0 0.0
2018-Feb-14 03:58N 61°08' E 021°26'0 0.0
2018-Feb-14 03:28N 61°08' E 021°26'0 0.0
2018-Feb-14 02:58N 61°08' E 021°26'0 0.0
2018-Feb-14 02:28N 61°08' E 021°26'0 0.0
2018-Feb-14 01:58N 61°08' E 021°26'0 0.0
2018-Feb-14 01:28N 61°08' E 021°26'0 0.0
2018-Feb-14 00:58N 61°08' E 021°26'0 0.0
2018-Feb-14 00:28N 61°08' E 021°26'0 0.0
2018-Feb-13 23:58N 61°08' E 021°26'0 0.0
2018-Feb-13 23:28N 61°08' E 021°26'0 0.0
2018-Feb-13 22:58N 61°08' E 021°26'0 0.0
2018-Feb-13 22:28N 61°08' E 021°26'0 0.0
2018-Feb-13 21:58N 61°08' E 021°26'0 0.0
2018-Feb-13 21:27N 61°08' E 021°26'0 0.0
2018-Feb-13 20:59N 61°08' E 021°26'0 0.0
2018-Feb-13 20:28N 61°08' E 021°26'0 0.0
2018-Feb-13 19:59N 61°08' E 021°26'0 0.0
2018-Feb-13 19:29N 61°08' E 021°26'0 0.0
2018-Feb-13 19:00N 61°08' E 021°26'0 0.0
2018-Feb-13 18:28N 61°08' E 021°26'0 0.0
2018-Feb-13 17:58N 61°08' E 021°26'0 0.0
2018-Feb-13 17:28N 61°08' E 021°26'0 0.0
2018-Feb-13 16:59N 61°08' E 021°26'0 0.0
2018-Feb-13 16:28N 61°08' E 021°26'0 0.0
2018-Feb-13 15:58N 61°08' E 021°26'0 0.0
2018-Feb-13 15:28N 61°08' E 021°26'0 0.0
2018-Feb-13 14:58N 61°08' E 021°26'0 0.0
2018-Feb-13 14:28N 61°08' E 021°26'0 0.0
2018-Feb-13 13:59N 61°08' E 021°26'0 0.0
2018-Feb-13 13:28N 61°08' E 021°26'0 0.0
2018-Feb-13 12:58N 61°08' E 021°26'0 0.0
2018-Feb-13 12:30N 61°08' E 021°26'0 0.0
2018-Feb-13 11:59N 61°08' E 021°26'0 0.0
2018-Feb-13 11:30N 61°08' E 021°26'0 0.0
2018-Feb-13 10:58N 61°08' E 021°26'0 0.0
2018-Feb-13 10:30N 61°08' E 021°26'0 0.0
2018-Feb-13 09:59N 61°08' E 021°26'0 0.0
2018-Feb-13 09:29N 61°08' E 021°26'0 0.0
2018-Feb-13 09:00N 61°08' E 021°26'0 0.0
2018-Feb-13 08:30N 61°08' E 021°26'0 0.0
2018-Feb-13 07:57N 61°08' E 021°26'0 0.0
2018-Feb-13 07:28N 61°08' E 021°26'0 0.0
2018-Feb-13 06:59N 61°08' E 021°26'0 0.0
2018-Feb-13 06:28N 61°08' E 021°26'0 0.0
2018-Feb-13 05:59N 61°08' E 021°26'0 0.0
2018-Feb-13 05:28N 61°08' E 021°26'0 0.0
2018-Feb-13 04:58N 61°08' E 021°26'0 0.0
2018-Feb-13 04:29N 61°08' E 021°26'0 0.0
2018-Feb-13 04:00N 61°08' E 021°26'0 0.0
2018-Feb-13 03:30N 61°08' E 021°26'0 0.0
2018-Feb-13 02:59N 61°08' E 021°26'0 0.0
2018-Feb-13 02:30N 61°08' E 021°26'0 0.0
2018-Feb-13 02:00N 61°08' E 021°26'0 0.0
2018-Feb-13 01:25N 61°08' E 021°26'0 0.0
2018-Feb-13 01:01N 61°08' E 021°26'0 0.0
2018-Feb-13 00:27N 61°08' E 021°26'0 0.0
2018-Feb-12 23:58N 61°08' E 021°26'0 0.0
2018-Feb-12 23:28N 61°08' E 021°26'0 0.0
2018-Feb-12 22:59N 61°08' E 021°26'0 0.0
2018-Feb-12 22:29N 61°08' E 021°26'0 0.0
2018-Feb-12 22:01N 61°08' E 021°26'0 0.0
2018-Feb-12 21:27N 61°08' E 021°26'0 0.0
2018-Feb-12 20:48N 61°08' E 021°26'0 0.0
2018-Feb-12 20:30N 61°08' E 021°26'0 0.0
2018-Feb-12 20:00N 61°08' E 021°26'0 0.0
2018-Feb-12 19:30N 61°08' E 021°26'0 0.0
2018-Feb-12 19:00N 61°08' E 021°26'0 0.0
2018-Feb-12 18:30N 61°08' E 021°26'0 0.0
2018-Feb-12 18:00N 61°08' E 021°26'0 0.0
2018-Feb-12 17:30N 61°08' E 021°26'0 0.0
2018-Feb-12 17:00N 61°08' E 021°26'0 0.0
2018-Feb-12 16:30N 61°08' E 021°26'0 0.0
2018-Feb-12 16:00N 61°08' E 021°26'0 0.0
2018-Feb-12 15:30N 61°08' E 021°26'0 0.0
2018-Feb-12 15:00N 61°08' E 021°26'0 0.0
2018-Feb-12 14:30N 61°08' E 021°26'0 0.0
2018-Feb-12 14:00N 61°08' E 021°26'0 0.0
2018-Feb-12 13:30N 61°08' E 021°26'0 0.0
2018-Feb-12 13:00N 61°08' E 021°26'0 0.0
2018-Feb-12 12:30N 61°08' E 021°26'0 0.0
2018-Feb-12 12:00N 61°08' E 021°26'0 0.0
2018-Feb-12 11:30N 61°08' E 021°26'0 0.0
2018-Feb-12 11:00N 61°08' E 021°26'0 0.0
2018-Feb-12 10:30N 61°08' E 021°26'0 0.0
2018-Feb-12 10:00N 61°08' E 021°26'0 0.0
2018-Feb-12 09:30N 61°08' E 021°26'0 0.0
2018-Feb-12 09:00N 61°08' E 021°26'0 0.0
2018-Feb-12 08:30N 61°08' E 021°26'0 0.0
2018-Feb-12 08:00N 61°08' E 021°26'0 0.0
2018-Feb-12 07:30N 61°08' E 021°26'0 0.0
2018-Feb-12 07:00N 61°08' E 021°26'0 0.0
2018-Feb-12 06:30N 61°08' E 021°26'0 0.0
2018-Feb-12 06:00N 61°08' E 021°26'0 0.0
2018-Feb-12 05:30N 61°08' E 021°26'0 0.0
2018-Feb-12 05:00N 61°08' E 021°26'0 0.0
2018-Feb-12 04:30N 61°08' E 021°26'0 0.0
2018-Feb-12 04:00N 61°08' E 021°26'0 0.0
2018-Feb-12 03:30N 61°08' E 021°26'0 0.0
2018-Feb-12 03:00N 61°08' E 021°26'0 0.0
2018-Feb-12 02:29N 61°08' E 021°26'0 0.0
2018-Feb-12 01:59N 61°08' E 021°26'0 0.0
2018-Feb-12 01:29N 61°08' E 021°26'0 0.0
2018-Feb-12 00:59N 61°08' E 021°26'0 0.0
2018-Feb-12 00:29N 61°08' E 021°26'0 0.0
2018-Feb-11 23:59N 61°08' E 021°26'0 0.0
2018-Feb-11 23:29N 61°08' E 021°26'0 0.0
2018-Feb-11 22:59N 61°08' E 021°26'0 0.0
2018-Feb-11 22:29N 61°08' E 021°26'0 0.0
2018-Feb-11 21:59N 61°08' E 021°26'0 0.0
2018-Feb-11 21:29N 61°08' E 021°26'0 0.0
2018-Feb-11 20:59N 61°08' E 021°26'0 0.0
2018-Feb-11 20:29N 61°08' E 021°26'0 0.0
2018-Feb-11 19:59N 61°08' E 021°26'0 0.0
2018-Feb-11 19:29N 61°08' E 021°26'0 0.0
2018-Feb-11 18:59N 61°08' E 021°26'  

Dump ship's entire track history